Time;durP1;ratioP1;P1;durP2;ratioP2;P2;SDS_P1;SDS_P2;PMS_P1;PMS_P2;Temp;Humidity;BMP_temperature;BMP_pressure;BME280_temperature;BME280_humidity;BME280_pressure;Samples;Min_cycle;Max_cycle;Signal;HPM_P1;HPM_P2
2022/04/03 00:01:30;;;;;;;4.25;3.83;;;;;;;-1.18;82.38;101917.38;4972998;28;20261;-44
2022/04/03 00:03:55;;;;;;;3.97;3.63;;;;;;;-1.19;82.55;101917.31;4972487;28;20539;-42
2022/04/03 00:06:22;;;;;;;4.80;3.70;;;;;;;-1.22;82.63;101920.75;4972517;28;20190;-43
2022/04/03 00:08:48;;;;;;;4.50;4.07;;;;;;;-1.22;82.93;101920.75;4972847;28;20177;-43
2022/04/03 00:11:13;;;;;;;3.67;3.38;;;;;;;-1.33;82.32;101907.31;5003830;28;20721;-45
2022/04/03 00:13:39;;;;;;;4.88;3.45;;;;;;;-1.29;83.01;101914.44;4972451;28;20167;-45
2022/04/03 00:16:06;;;;;;;6.30;3.60;;;;;;;-1.35;82.67;101903.75;4972437;28;20202;-43
2022/04/03 00:18:33;;;;;;;4.22;3.83;;;;;;;-1.43;82.33;101902.63;4973136;28;20692;-43
2022/04/03 00:20:59;;;;;;;5.50;4.28;;;;;;;-1.48;82.78;101906.88;4972676;28;20294;-41
2022/04/03 00:23:24;;;;;;;4.43;3.47;;;;;;;-1.43;83.58;101900.00;4972386;28;20731;-43
2022/04/03 00:25:51;;;;;;;5.10;3.83;;;;;;;-1.46;83.05;101894.69;4972028;28;20197;-42
2022/04/03 00:28:17;;;;;;;4.30;3.70;;;;;;;-1.41;82.83;101902.69;4972665;28;20200;-42
2022/04/03 00:30:44;;;;;;;5.93;4.10;;;;;;;-1.43;83.05;101889.50;4972868;28;20518;-43
2022/04/03 00:33:11;;;;;;;5.75;4.15;;;;;;;-1.49;82.81;101900.75;4972317;28;20196;-42
2022/04/03 00:35:36;;;;;;;5.40;4.05;;;;;;;-1.52;83.35;101895.38;4972557;28;20201;-42
2022/04/03 00:38:02;;;;;;;4.70;4.05;;;;;;;-1.43;83.39;101892.13;4973009;28;20700;-42
2022/04/03 00:40:28;;;;;;;5.55;4.07;;;;;;;-1.51;83.64;101896.25;4972621;28;20192;-42
2022/04/03 00:42:53;;;;;;;5.75;4.47;;;;;;;-1.57;82.93;101897.00;4972282;28;20181;-42
2022/04/03 00:45:19;;;;;;;4.47;3.70;;;;;;;-1.53;83.52;101896.25;4995158;28;20673;-44
2022/04/03 00:47:48;;;;;;;4.93;4.43;;;;;;;-1.58;83.10;101891.69;4972298;28;20177;-42
2022/04/03 00:50:14;;;;;;;4.47;3.95;;;;;;;-1.57;83.20;101885.59;4972277;28;20630;-43
2022/04/03 00:52:40;;;;;;;4.85;4.38;;;;;;;-1.53;83.07;101883.09;4972243;28;20193;-44
2022/04/03 00:55:06;;;;;;;5.53;4.28;;;;;;;-1.49;83.10;101892.84;4972443;28;20166;-43
2022/04/03 00:57:33;;;;;;;5.15;3.90;;;;;;;-1.55;82.90;101886.50;4972424;28;20221;-45
2022/04/03 01:00:01;;;;;;;4.68;4.07;;;;;;;-1.52;82.96;101879.63;4972104;28;20680;-43
2022/04/03 01:02:27;;;;;;;5.63;4.40;;;;;;;-1.60;83.44;101875.88;4972100;28;20567;-44
2022/04/03 01:04:52;;;;;;;4.35;3.90;;;;;;;-1.56;83.38;101876.84;4971714;28;20218;-43
2022/04/03 01:07:18;;;;;;;6.60;4.47;;;;;;;-1.58;83.39;101883.81;4972529;28;20182;-43
2022/04/03 01:09:44;;;;;;;4.55;4.13;;;;;;;-1.68;83.48;101872.16;4971974;28;20550;-44
2022/04/03 01:12:10;;;;;;;4.63;4.10;;;;;;;-1.63;84.06;101881.06;4971617;28;20178;-43
2022/04/03 01:14:41;;;;;;;5.50;4.15;;;;;;;-1.78;84.10;101880.59;4972135;28;20272;-43
2022/04/03 01:17:07;;;;;;;7.38;4.95;;;;;;;-1.96;84.60;101879.22;4971475;28;20230;-44
2022/04/03 01:19:33;;;;;;;5.75;4.30;;;;;;;-1.96;85.29;101870.47;4972078;28;20197;-40
2022/04/03 01:21:59;;;;;;;5.93;4.43;;;;;;;-1.95;85.39;101869.59;4972046;28;20209;-45
2022/04/03 01:24:26;;;;;;;6.47;4.88;;;;;;;-2.19;85.66;101870.63;4971720;28;20197;-45
2022/04/03 01:26:52;;;;;;;5.82;5.22;;;;;;;-2.10;86.20;101867.41;4970790;28;20202;-41
2022/04/03 01:29:18;;;;;;;6.90;4.95;;;;;;;-2.07;86.66;101870.13;4971097;28;20209;-41
2022/04/03 01:31:46;;;;;;;7.07;5.10;;;;;;;-2.29;86.77;101868.59;4971796;28;20178;-41
2022/04/03 01:34:12;;;;;;;5.60;4.70;;;;;;;-2.26;87.06;101860.78;4970292;28;20186;-40
2022/04/03 01:36:38;;;;;;;5.88;4.70;;;;;;;-2.20;87.34;101865.34;4971563;28;20198;-42
2022/04/03 01:39:03;;;;;;;6.15;5.18;;;;;;;-2.26;87.39;101862.53;4971532;28;20193;-43
2022/04/03 01:41:29;;;;;;;9.55;5.32;;;;;;;-2.36;87.77;101858.72;4971129;28;20182;-42
2022/04/03 01:43:55;;;;;;;5.95;4.80;;;;;;;-2.38;87.99;101855.19;4971660;28;20201;-44
2022/04/03 01:46:21;;;;;;;7.70;4.78;;;;;;;-2.44;87.65;101855.00;4959412;28;20202;-42
2022/04/03 01:48:46;;;;;;;7.13;5.32;;;;;;;-2.52;88.20;101857.34;4962985;28;20284;-44
2022/04/03 01:51:12;;;;;;;7.05;5.00;;;;;;;-2.57;88.65;101851.97;4971405;28;20560;-43
2022/04/03 01:53:37;;;;;;;5.80;5.05;;;;;;;-2.71;88.61;101845.41;4971223;28;20688;-43
2022/04/03 01:56:05;;;;;;;7.53;4.97;;;;;;;-2.63;88.99;101849.13;4970794;28;20201;-43
2022/04/03 01:58:32;;;;;;;6.93;5.20;;;;;;;-2.59;89.28;101845.78;4971156;28;20210;-42
2022/04/03 02:00:58;;;;;;;7.43;5.68;;;;;;;-2.61;89.25;101844.84;4970806;28;20178;-44
2022/04/03 02:03:24;;;;;;;6.68;4.72;;;;;;;-2.64;89.49;101850.00;4971144;28;20209;-43
2022/04/03 02:05:50;;;;;;;7.18;5.60;;;;;;;-2.61;89.41;101852.72;4971200;28;20545;-43
2022/04/03 02:08:15;;;;;;;7.82;5.07;;;;;;;-2.58;89.09;101850.19;4969843;28;20186;-44
2022/04/03 02:10:42;;;;;;;9.20;5.50;;;;;;;-2.53;89.41;101839.84;4970955;28;20170;-42
2022/04/03 02:13:08;;;;;;;7.07;5.53;;;;;;;-2.65;89.04;101839.44;4970606;28;20178;-41
2022/04/03 02:15:33;;;;;;;5.72;4.93;;;;;;;-2.65;89.64;101844.69;4971028;28;20231;-43
2022/04/03 02:17:59;;;;;;;6.55;5.28;;;;;;;-2.53;89.92;101835.47;4971153;28;20685;-44
2022/04/03 02:20:25;;;;;;;6.70;5.25;;;;;;;-2.50;89.31;101822.44;4971174;28;20171;-44
2022/04/03 02:22:51;;;;;;;7.60;5.80;;;;;;;-2.53;89.38;101834.59;4970721;28;20184;-42
2022/04/03 02:25:16;;;;;;;6.10;4.90;;;;;;;-2.46;89.49;101825.19;4971186;28;20201;-41
2022/04/03 02:27:44;;;;;;;6.97;5.10;;;;;;;-2.45;88.92;101819.06;4970513;28;20182;-42
2022/04/03 02:30:10;;;;;;;5.78;4.85;;;;;;;-2.53;88.67;101816.25;4970759;28;20178;-43
2022/04/03 02:32:38;;;;;;;8.07;5.35;;;;;;;-2.66;89.32;101825.44;4971127;28;20225;-42
2022/04/03 02:35:06;;;;;;;6.88;4.80;;;;;;;-2.56;89.04;101826.63;4970881;28;20487;-43
2022/04/03 02:37:33;;;;;;;7.57;5.78;;;;;;;-2.54;89.13;101815.31;4970984;28;20193;-43
2022/04/03 02:39:59;;;;;;;6.32;5.18;;;;;;;-2.50;89.41;101811.94;4970860;28;20173;-43
2022/04/03 02:42:24;;;;;;;6.30;4.90;;;;;;;-2.43;88.67;101809.53;4970406;28;20204;-41
2022/04/03 02:44:50;;;;;;;7.03;5.50;;;;;;;-2.55;89.06;101816.19;4971331;28;20206;-43
2022/04/03 02:47:15;;;;;;;5.47;4.40;;;;;;;-2.46;89.55;101805.06;4970852;28;20190;-43
2022/04/03 02:49:41;;;;;;;5.65;4.80;;;;;;;-2.43;89.17;101810.41;4972803;28;20190;-42
2022/04/03 02:52:06;;;;;;;7.00;4.90;;;;;;;-2.46;89.43;101812.06;4973996;28;20221;-43
2022/04/03 02:54:32;;;;;;;6.10;5.00;;;;;;;-2.53;89.54;101801.38;4974473;28;20169;-43
2022/04/03 02:56:57;;;;;;;5.55;4.82;;;;;;;-2.53;89.34;101811.88;4974730;28;20216;-41
2022/04/03 02:59:23;;;;;;;7.22;4.97;;;;;;;-2.49;89.37;101807.63;4974306;28;20166;-40
2022/04/03 03:01:48;;;;;;;6.07;5.15;;;;;;;-2.52;90.27;101810.13;4973999;28;20205;-43
2022/04/03 03:04:14;;;;;;;5.43;4.90;;;;;;;-2.42;89.84;101804.34;4974118;28;20278;-42
2022/04/03 03:06:40;;;;;;;6.22;4.68;;;;;;;-2.52;90.03;101804.88;4974405;28;20190;-42
2022/04/03 03:09:06;;;;;;;8.90;4.78;;;;;;;-2.53;90.14;101801.38;4974923;28;20178;-43
2022/04/03 03:11:31;;;;;;;5.93;5.05;;;;;;;-2.49;90.25;101794.50;4973918;28;20189;-43
2022/04/03 03:13:57;;;;;;;6.15;4.57;;;;;;;-2.54;90.20;101788.19;4974526;28;20190;-43
2022/04/03 03:16:22;;;;;;;7.28;5.15;;;;;;;-2.68;90.01;101802.63;4974075;28;20205;-44
2022/04/03 03:18:47;;;;;;;8.98;5.55;;;;;;;-2.61;89.72;101795.00;4974618;28;20174;-43
2022/04/03 03:21:13;;;;;;;6.75;5.07;;;;;;;-2.66;90.31;101798.34;4974179;28;20166;-43
2022/04/03 03:23:40;;;;;;;6.82;5.40;;;;;;;-2.59;90.17;101803.81;4973774;28;20256;-43
2022/04/03 03:26:06;;;;;;;5.55;4.93;;;;;;;-2.75;90.38;101796.31;4974238;28;20202;-44
2022/04/03 03:28:32;;;;;;;6.78;5.07;;;;;;;-2.72;90.71;101792.03;4973944;28;20194;-41
2022/04/03 03:30:57;;;;;;;7.13;5.18;;;;;;;-2.69;90.89;101799.09;4974061;28;20218;-44
2022/04/03 03:33:23;;;;;;;6.90;5.32;;;;;;;-2.67;90.76;101799.16;4974003;28;20174;-43
2022/04/03 03:35:48;;;;;;;6.57;5.25;;;;;;;-2.63;90.76;101786.19;4973849;28;20669;-43
2022/04/03 03:38:14;;;;;;;5.25;4.75;;;;;;;-2.59;91.15;101792.44;4973990;28;20185;-42
2022/04/03 03:40:39;;;;;;;6.82;5.10;;;;;;;-2.58;91.38;101788.94;5005092;28;20218;-43
2022/04/03 03:43:05;;;;;;;5.75;5.03;;;;;;;-2.60;91.19;101785.38;4973700;28;20177;-41
2022/04/03 03:45:31;;;;;;;5.20;4.70;;;;;;;-2.52;91.50;101781.28;4971098;28;20210;-43
2022/04/03 03:47:57;;;;;;;8.60;5.15;;;;;;;-2.78;91.72;101770.84;4954113;28;20309;-43
2022/04/03 03:50:24;;;;;;;7.72;5.68;;;;;;;-2.67;91.86;101775.56;4954200;28;20199;-42
2022/04/03 03:52:50;;;;;;;7.85;5.32;;;;;;;-2.70;92.10;101771.09;4952765;29;20295;-44
2022/04/03 03:55:16;;;;;;;7.22;5.22;;;;;;;-2.79;92.18;101783.94;4954704;28;20666;-41
2022/04/03 03:57:45;;;;;;;7.78;5.45;;;;;;;-2.71;92.96;101764.97;4954293;28;20209;-42
2022/04/03 04:00:11;;;;;;;9.52;4.97;;;;;;;-2.77;93.19;101771.75;4960225;28;20317;-40
2022/04/03 04:02:40;;;;;;;6.13;4.63;;;;;;;-2.86;93.09;101772.38;4955089;28;20174;-44
2022/04/03 04:05:06;;;;;;;6.40;5.03;;;;;;;-2.73;93.38;101765.78;4967458;28;20816;-44
2022/04/03 04:07:43;;;;;;;6.72;4.90;;;;;;;-2.62;93.18;101772.25;4973790;28;20182;-42
2022/04/03 04:10:12;;;;;;;8.45;5.47;;;;;;;-2.73;93.29;101764.03;4973141;28;20170;-44
2022/04/03 04:12:39;;;;;;;7.10;4.72;;;;;;;-2.68;92.95;101753.69;4973086;28;20680;-42
2022/04/03 04:15:05;;;;;;;6.53;5.25;;;;;;;-2.81;93.35;101762.03;4972024;28;20174;-43
2022/04/03 04:17:39;;;;;;;5.93;4.95;;;;;;;-2.68;93.42;101758.94;4972906;28;20201;-43
2022/04/03 04:20:11;;;;;;;7.35;5.13;;;;;;;-2.82;93.31;101760.22;4973208;28;20206;-42
2022/04/03 04:22:37;;;;;;;7.53;5.18;;;;;;;-2.73;93.56;101758.78;4973239;28;20174;-42
2022/04/03 04:25:03;;;;;;;4.70;4.30;;;;;;;-2.70;93.39;101753.63;4975677;28;20206;-43
2022/04/03 04:27:28;;;;;;;6.50;5.38;;;;;;;-2.72;92.93;101757.06;4976298;28;20656;-43
2022/04/03 04:29:54;;;;;;;6.88;4.65;;;;;;;-2.65;93.40;101756.38;4974261;28;20166;-42
2022/04/03 04:32:21;;;;;;;6.90;5.47;;;;;;;-2.71;93.00;101751.88;4972299;28;20853;-39
2022/04/03 04:34:50;;;;;;;6.22;5.03;;;;;;;-2.85;93.20;101760.13;4972293;28;20629;-44
2022/04/03 04:37:16;;;;;;;5.75;4.93;;;;;;;-2.71;93.79;101756.22;4972517;28;20186;-41
2022/04/03 04:39:42;;;;;;;7.57;5.47;;;;;;;-2.67;94.23;101751.94;4972408;28;20236;-43
2022/04/03 04:42:07;;;;;;;5.30;4.80;;;;;;;-2.52;94.42;101742.78;4972433;28;20174;-43
2022/04/03 04:44:33;;;;;;;6.35;5.25;;;;;;;-2.58;94.25;101758.38;4971793;28;20212;-44
2022/04/03 04:46:58;;;;;;;5.90;5.30;;;;;;;-2.55;94.75;101740.09;4970986;28;20221;-44
2022/04/03 04:49:23;;;;;;;7.93;5.60;;;;;;;-2.44;94.44;101745.66;4972436;28;20174;-43
2022/04/03 04:51:49;;;;;;;5.57;4.80;;;;;;;-2.39;94.56;101749.31;4972264;28;20261;-41
2022/04/03 04:54:14;;;;;;;6.53;4.93;;;;;;;-2.34;94.48;101749.44;4971803;28;20225;-43
2022/04/03 04:56:40;;;;;;;7.22;5.25;;;;;;;-2.36;94.53;101744.16;4972202;28;20185;-42
2022/04/03 04:59:05;;;;;;;7.63;5.40;;;;;;;-2.28;94.79;101733.88;4971593;28;20225;-44
2022/04/03 05:01:31;;;;;;;6.53;5.47;;;;;;;-2.33;95.13;101736.38;4971926;28;20182;-43
2022/04/03 05:03:56;;;;;;;7.45;5.25;;;;;;;-2.25;94.93;101733.97;5003155;28;20206;-42
2022/04/03 05:06:26;;;;;;;7.95;5.28;;;;;;;-2.19;95.26;101726.25;4971704;28;20201;-43
2022/04/03 05:08:53;;;;;;;10.25;5.75;;;;;;;-2.13;95.40;101731.69;4971999;28;20174;-41
2022/04/03 05:11:19;;;;;;;5.55;5.03;;;;;;;-2.01;94.83;101736.41;5002753;28;20618;-41
2022/04/03 05:13:46;;;;;;;6.20;4.78;;;;;;;-1.96;94.73;101739.16;4971296;28;20232;-42
2022/04/03 05:16:11;;;;;;;5.53;4.75;;;;;;;-1.95;94.98;101735.66;4971569;28;20230;-42
2022/04/03 05:18:37;;;;;;;7.20;5.10;;;;;;;-1.89;94.54;101734.09;4971682;28;20317;-44
2022/04/03 05:21:06;;;;;;;5.28;4.70;;;;;;;-1.99;94.69;101731.16;4971833;28;20209;-43
2022/04/03 05:23:32;;;;;;;5.20;4.70;;;;;;;-1.92;94.42;101730.50;4971024;28;20228;-42
2022/04/03 05:25:58;;;;;;;7.45;5.57;;;;;;;-1.91;94.97;101740.16;4971465;28;20205;-42
2022/04/03 05:28:23;;;;;;;6.53;5.15;;;;;;;-1.83;94.95;101730.75;4971205;28;20170;-43
2022/04/03 05:30:49;;;;;;;5.25;4.75;;;;;;;-1.75;94.55;101734.50;4971693;28;20189;-43
2022/04/03 05:33:15;;;;;;;7.20;5.53;;;;;;;-1.79;94.68;101747.47;4971893;28;20213;-43
2022/04/03 05:35:41;;;;;;;8.82;4.95;;;;;;;-1.73;94.42;101743.31;4971779;28;20186;-43
2022/04/03 05:38:07;;;;;;;7.28;4.82;;;;;;;-1.59;93.85;101743.66;4971936;28;20221;-43
2022/04/03 05:40:32;;;;;;;6.38;5.03;;;;;;;-1.41;93.76;101739.72;4971867;28;20170;-42
2022/04/03 05:42:59;;;;;;;6.35;4.85;;;;;;;-1.28;94.23;101729.53;4971302;28;20232;-44
2022/04/03 05:45:25;;;;;;;5.22;4.75;;;;;;;-1.04;93.38;101733.63;5003204;28;20210;-42
2022/04/03 05:47:51;;;;;;;4.38;3.90;;;;;;;-0.76;93.58;101743.06;4971511;28;20170;-42
2022/04/03 05:50:17;;;;;;;5.47;3.60;;;;;;;-0.84;93.11;101728.81;4971881;28;20261;-41
2022/04/03 05:52:45;;;;;;;6.40;3.50;;;;;;;-0.78;93.75;101730.72;4971269;28;20170;-42
2022/04/03 05:55:11;;;;;;;4.25;3.30;;;;;;;-0.75;93.76;101733.41;4971653;28;20162;-42
2022/04/03 05:57:37;;;;;;;5.10;3.53;;;;;;;-0.62;93.19;101738.09;4971725;28;20241;-42
2022/04/03 06:00:07;;;;;;;7.90;3.53;;;;;;;-0.56;93.01;101738.22;4971879;28;20226;-44
2022/04/03 06:02:55;;;;;;;4.25;3.85;;;;;;;0.21;92.46;101721.34;5001449;28;20406;-44
2022/04/03 06:05:26;;;;;;;5.05;3.00;;;;;;;0.56;90.79;101718.44;4971526;28;20220;-43
2022/04/03 06:07:52;;;;;;;5.80;3.00;;;;;;;1.11;89.09;101718.44;4971289;28;20174;-43
2022/04/03 06:10:19;;;;;;;4.45;2.70;;;;;;;1.36;87.51;101715.31;4971669;28;20871;-42
2022/04/03 06:12:55;;;;;;;2.88;2.60;;;;;;;1.31;85.59;101716.09;4971107;28;20644;-43
2022/04/03 06:15:21;;;;;;;5.15;2.53;;;;;;;0.78;85.08;101717.94;4971663;28;20208;-44
2022/04/03 06:17:51;;;;;;;6.65;4.22;;;;;;;1.26;84.19;101712.50;4969925;28;20197;-45
2022/04/03 06:20:18;;;;;;;3.97;2.75;;;;;;;1.60;82.35;101712.09;4970810;28;20168;-48
2022/04/03 06:22:44;;;;;;;2.67;2.45;;;;;;;1.74;81.57;101714.91;4970651;28;20182;-44
2022/04/03 06:25:10;;;;;;;2.65;2.40;;;;;;;1.94;80.31;101709.84;4973829;28;20205;-45
2022/04/03 06:27:35;;;;;;;3.17;2.40;;;;;;;2.15;79.31;101703.94;5006244;28;20174;-46
2022/04/03 06:30:01;;;;;;;4.13;2.10;;;;;;;2.33;77.71;101711.16;5005966;28;20898;-49
2022/04/03 06:32:26;;;;;;;3.88;2.42;;;;;;;2.71;77.11;101699.13;4973671;28;20622;-44
2022/04/03 06:34:51;;;;;;;5.68;2.55;;;;;;;2.91;75.63;101702.84;4974003;28;20182;-48
2022/04/03 06:37:17;;;;;;;2.90;2.50;;;;;;;3.23;75.44;101697.72;4974498;28;20285;-45
2022/04/03 06:39:42;;;;;;;3.17;2.80;;;;;;;3.14;74.81;101705.63;4974645;28;20166;-45
2022/04/03 06:42:08;;;;;;;2.85;2.20;;;;;;;3.27;74.40;101704.81;4974471;28;20244;-48
2022/04/03 06:44:34;;;;;;;2.17;1.88;;;;;;;2.87;75.49;101709.88;4973007;28;20565;-49
2022/04/03 06:47:00;;;;;;;6.53;1.92;;;;;;;2.41;76.71;101700.66;4974484;28;20206;-46
2022/04/03 06:49:29;;;;;;;4.85;1.90;;;;;;;2.10;78.47;101710.94;5005740;28;20201;-45
2022/04/03 06:51:54;;;;;;;6.93;2.72;;;;;;;1.87;80.37;101702.72;4974394;28;20205;-44
2022/04/03 06:54:20;;;;;;;3.92;2.00;;;;;;;1.83;80.98;101714.13;4973212;28;20688;-45
2022/04/03 06:56:45;;;;;;;4.75;1.90;;;;;;;2.08;81.68;101703.81;4959583;28;20490;-48
2022/04/03 06:59:11;;;;;;;4.28;2.17;;;;;;;2.06;82.26;101706.47;4938787;28;20282;-48
2022/04/03 07:01:36;;;;;;;3.38;2.15;;;;;;;1.90;83.24;101700.09;4959220;28;20850;-46
2022/04/03 07:04:02;;;;;;;3.83;2.30;;;;;;;1.85;83.59;101702.69;4952748;29;20210;-45
2022/04/03 07:06:27;;;;;;;3.53;2.00;;;;;;;1.83;84.27;101715.00;4950674;28;20650;-44
2022/04/03 07:08:53;;;;;;;4.18;2.22;;;;;;;1.61;85.62;101713.84;4954497;29;20193;-48
2022/04/03 07:11:19;;;;;;;6.28;2.60;;;;;;;2.01;85.55;101714.34;4965336;28;20186;-47
2022/04/03 07:13:45;;;;;;;4.10;2.58;;;;;;;2.13;86.39;101704.78;4987587;28;20208;-46
2022/04/03 07:16:10;;;;;;;5.15;2.05;;;;;;;2.84;84.67;101711.59;4957995;28;20210;-48
2022/04/03 07:18:36;;;;;;;4.13;2.20;;;;;;;3.22;83.58;101705.69;4953106;29;20310;-44
2022/04/03 07:21:02;;;;;;;5.25;2.10;;;;;;;3.70;81.22;101706.81;4953982;29;20606;-47
2022/04/03 07:23:27;;;;;;;6.05;2.70;;;;;;;3.75;79.50;101701.53;4952794;29;20191;-48
2022/04/03 07:25:52;;;;;;;4.38;2.42;;;;;;;4.06;78.74;101706.03;4954187;28;20191;-46
2022/04/03 07:28:18;;;;;;;3.22;2.00;;;;;;;4.59;77.15;101698.16;4954512;28;20194;-48
2022/04/03 07:30:43;;;;;;;3.75;2.05;;;;;;;4.37;76.15;101692.84;4953227;29;21073;-45
2022/04/03 07:33:09;;;;;;;7.57;2.65;;;;;;;4.34;77.20;101700.81;4953265;29;20525;-47
2022/04/03 07:35:34;;;;;;;5.43;3.33;;;;;;;5.04;75.95;101709.66;4952469;28;20206;-45
2022/04/03 07:38:00;;;;;;;6.28;2.90;;;;;;;5.34;74.56;101698.09;4954360;29;20281;-47
2022/04/03 07:40:25;;;;;;;5.32;2.63;;;;;;;5.33;74.05;101699.84;4954140;28;20483;-48
2022/04/03 07:42:52;;;;;;;5.13;2.65;;;;;;;5.26;74.15;101700.75;4953767;29;20183;-47
2022/04/03 07:45:18;;;;;;;6.97;3.20;;;;;;;5.05;75.74;101707.03;4936556;28;20690;-47
2022/04/03 07:47:46;;;;;;;5.95;2.55;;;;;;;5.41;75.22;101706.94;4954262;29;20189;-48
2022/04/03 07:50:11;;;;;;;6.70;2.70;;;;;;;5.19;74.15;101701.69;4954171;28;20193;-46
2022/04/03 07:52:37;;;;;;;5.80;2.22;;;;;;;5.82;72.59;101695.28;4955313;28;20171;-45
2022/04/03 07:55:02;;;;;;;6.20;2.38;;;;;;;5.79;72.82;101698.81;4971408;28;20909;-47
2022/04/03 07:57:28;;;;;;;6.93;2.38;;;;;;;5.90;72.43;101696.09;4972868;28;20166;-46
2022/04/03 07:59:53;;;;;;;5.18;2.00;;;;;;;6.19;73.28;101699.53;4972167;28;20197;-46
2022/04/03 08:02:20;;;;;;;7.50;2.42;;;;;;;5.97;72.79;101697.91;4972795;28;20190;-46
2022/04/03 08:04:45;;;;;;;10.70;3.00;;;;;;;6.16;72.24;101699.53;4972438;28;20213;-47
2022/04/03 08:07:11;;;;;;;10.82;4.75;;;;;;;6.18;71.41;101695.09;5003981;28;20206;-48
2022/04/03 08:09:36;;;;;;;11.57;4.50;;;;;;;6.36;71.75;101696.78;4994909;28;20182;-47
2022/04/03 08:12:02;;;;;;;7.45;2.60;;;;;;;6.69;71.61;101702.72;4972906;28;20162;-46
2022/04/03 08:14:27;;;;;;;5.40;1.90;;;;;;;6.76;71.24;101692.91;4987390;28;20180;-49
2022/04/03 08:16:54;;;;;;;7.68;2.05;;;;;;;7.05;69.36;101697.97;4987542;28;20202;-48
2022/04/03 08:19:19;;;;;;;8.50;2.28;;;;;;;6.87;70.34;101701.69;4987624;28;20175;-49
2022/04/03 08:21:44;;;;;;;7.53;2.15;;;;;;;7.12;69.89;101693.44;4971481;28;20186;-49
2022/04/03 08:24:11;;;;;;;6.90;1.80;;;;;;;7.62;68.05;101692.00;4972161;28;20622;-48
2022/04/03 08:26:36;;;;;;;4.97;1.83;;;;;;;8.19;66.00;101683.25;4987707;28;20193;-44
2022/04/03 08:29:01;;;;;;;3.70;1.50;;;;;;;7.55;66.18;101695.66;4971133;28;20190;-47
2022/04/03 08:31:28;;;;;;;4.75;1.67;;;;;;;8.08;65.75;101687.88;4972584;28;20198;-48
2022/04/03 08:33:53;;;;;;;7.03;1.70;;;;;;;7.57;65.00;101686.75;4971523;28;20174;-46
2022/04/03 08:36:19;;;;;;;10.13;2.10;;;;;;;7.25;67.17;101692.44;4972416;28;20635;-48
2022/04/03 08:38:45;;;;;;;5.53;1.58;;;;;;;7.78;65.14;101688.28;4972378;28;20257;-48
2022/04/03 08:41:12;;;;;;;3.95;1.30;;;;;;;7.54;63.84;101684.13;4971204;28;20273;-49
2022/04/03 08:43:40;;;;;;;3.65;1.38;;;;;;;7.55;62.79;101680.53;4971863;28;20280;-49
2022/04/03 08:46:07;;;;;;;6.80;1.80;;;;;;;7.63;62.89;101683.09;4970226;28;20272;-49
2022/04/03 08:48:33;;;;;;;5.45;1.45;;;;;;;7.77;63.52;101690.94;4986652;28;20181;-47
2022/04/03 08:51:04;;;;;;;5.65;1.55;;;;;;;7.84;62.25;101676.63;4972333;28;20170;-46
2022/04/03 08:53:32;;;;;;;5.78;1.70;;;;;;;7.54;61.07;101688.53;4970309;28;20217;-48
2022/04/03 08:55:59;;;;;;;3.80;1.33;;;;;;;7.82;60.08;101673.97;4972099;28;20727;-46
2022/04/03 08:58:25;;;;;;;8.70;1.70;;;;;;;8.32;59.73;101684.81;4972239;28;20174;-48
2022/04/03 09:00:50;;;;;;;5.38;1.77;;;;;;;7.94;61.21;101677.41;4970308;28;20188;-48
2022/04/03 09:03:15;;;;;;;6.70;1.75;;;;;;;7.48;62.52;101686.84;4963507;28;20217;-49
2022/04/03 09:05:43;;;;;;;7.68;1.50;;;;;;;7.92;61.92;101676.53;4970632;28;20206;-42
2022/04/03 09:08:09;;;;;;;3.00;1.00;;;;;;;6.31;61.32;101692.34;4987504;28;20280;-42
2022/04/03 09:10:35;;;;;;;4.47;0.85;;;;;;;7.92;60.03;101674.72;4971615;28;20320;-42
2022/04/03 09:13:02;;;;;;;4.60;1.40;;;;;;;7.52;59.76;101680.59;4970790;28;20322;-44
2022/04/03 09:15:29;;;;;;;1.88;0.88;;;;;;;7.46;59.34;101685.13;4954069;28;20203;-45
2022/04/03 09:17:57;;;;;;;3.88;1.00;;;;;;;7.14;58.82;101689.88;4952075;28;20565;-44
2022/04/03 09:20:23;;;;;;;4.88;1.33;;;;;;;7.26;58.90;101686.22;4952434;29;20170;-43
2022/04/03 09:22:53;;;;;;;3.15;0.98;;;;;;;6.42;61.65;101676.31;4964100;28;20595;-40
2022/04/03 09:25:30;;;;;;;5.32;1.33;;;;;;;7.38;62.32;101686.06;4964602;28;20248;-43
2022/04/03 09:28:01;;;;;;;3.58;1.17;;;;;;;8.33;60.89;101675.03;4971836;28;20496;-44
2022/04/03 09:30:43;;;;;;;2.30;1.00;;;;;;;8.66;58.02;101665.66;4971850;28;20636;-42
2022/04/03 09:33:11;;;;;;;4.32;1.25;;;;;;;8.60;56.03;101663.06;4971409;28;20860;-44
2022/04/03 09:35:57;;;;;;;2.88;0.85;;;;;;;9.14;55.67;101659.44;4971851;28;20198;-41
2022/04/03 09:38:23;;;;;;;2.72;0.80;;;;;;;9.31;54.28;101653.75;4971351;28;20265;-42
2022/04/03 09:40:50;;;;;;;2.85;0.90;;;;;;;9.18;54.35;101650.44;4971584;28;20606;-43
2022/04/03 09:43:16;;;;;;;3.58;0.90;;;;;;;9.29;53.19;101653.78;4971122;28;20166;-43
2022/04/03 09:45:50;;;;;;;3.10;0.90;;;;;;;9.50;52.18;101647.13;4971363;28;20547;-41
2022/04/03 09:48:25;;;;;;;3.15;0.95;;;;;;;9.67;52.58;101639.63;4971636;28;20154;-42
2022/04/03 09:51:06;;;;;;;4.60;0.90;;;;;;;9.29;53.20;101651.09;4970832;28;20297;-41
2022/04/03 09:53:49;;;;;;;3.28;1.08;;;;;;;8.82;54.71;101647.56;4971311;28;20614;-43
2022/04/03 09:56:27;;;;;;;3.72;1.10;;;;;;;8.43;55.50;101653.53;4971122;28;20546;-41
2022/04/03 09:58:53;;;;;;;4.60;1.27;;;;;;;8.10;57.04;101648.69;4971429;28;20212;-40
2022/04/03 10:01:34;;;;;;;7.15;1.38;;;;;;;8.43;57.54;101649.97;4960640;28;20673;-42
2022/04/03 10:04:02;;;;;;;3.35;1.10;;;;;;;8.81;57.93;101645.78;4951923;28;20209;-41
2022/04/03 10:06:29;;;;;;;5.32;1.30;;;;;;;8.61;56.92;101643.44;4951117;28;20565;-40
2022/04/03 10:08:55;;;;;;;3.60;1.20;;;;;;;8.57;56.30;101637.31;4934698;29;20556;-43
2022/04/03 10:11:21;;;;;;;3.53;0.90;;;;;;;8.36;56.34;101629.59;4951960;28;20171;-43
2022/04/03 10:13:48;;;;;;;5.65;1.10;;;;;;;8.00;55.40;101630.16;4950619;29;20630;-44
2022/04/03 10:16:15;;;;;;;4.88;1.05;;;;;;;7.93;56.10;101625.78;4951605;28;20229;-45
2022/04/03 10:18:41;;;;;;;2.85;0.70;;;;;;;7.28;54.67;101622.19;4951874;28;20700;-45
2022/04/03 10:21:13;;;;;;;3.17;0.90;;;;;;;7.10;56.34;101641.97;4950192;29;20179;-47
2022/04/03 10:23:40;;;;;;;2.50;0.90;;;;;;;6.70;58.73;101645.03;4951294;28;20186;-45
2022/04/03 10:26:08;;;;;;;2.83;0.70;;;;;;;6.63;61.47;101638.00;4951586;28;20231;-45
2022/04/03 10:28:35;;;;;;;6.90;1.25;;;;;;;6.43;64.31;101648.78;4951451;28;20654;-48
2022/04/03 10:31:08;;;;;;;2.28;1.13;;;;;;;6.57;67.23;101649.56;4951544;28;20167;-45
2022/04/03 10:33:38;;;;;;;2.83;1.05;;;;;;;6.20;68.90;101649.84;4949914;29;20250;-46
2022/04/03 10:36:09;;;;;;;2.88;0.95;;;;;;;5.58;70.41;101651.94;4950467;28;20230;-47
2022/04/03 10:38:47;;;;;;;3.53;1.33;;;;;;;4.95;74.14;101666.28;4950980;28;20813;-48
2022/04/03 10:41:35;;;;;;;7.15;1.10;;;;;;;5.15;73.54;101649.44;4951631;28;20218;-48
2022/04/03 10:44:14;;;;;;;6.28;1.33;;;;;;;5.42;72.65;101652.88;4951559;28;20566;-48
2022/04/03 10:47:02;;;;;;;4.03;1.45;;;;;;;5.57;72.90;101668.78;4951401;28;20207;-45
2022/04/03 10:49:59;;;;;;;1.77;0.70;;;;;;;4.81;76.42;101676.06;4951716;28;20185;-45
2022/04/03 10:52:46;;;;;;;3.33;0.80;;;;;;;4.53;78.64;101676.06;4951443;28;20202;-48
2022/04/03 10:55:36;;;;;;;2.50;0.70;;;;;;;4.22;82.17;101676.91;4951406;28;20204;-45
2022/04/03 10:58:06;;;;;;;2.63;0.90;;;;;;;4.17;85.26;101679.56;4951704;28;20631;-45
2022/04/03 11:00:33;;;;;;;1.50;0.70;;;;;;;4.10;86.96;101685.72;4951554;28;20197;-45
2022/04/03 11:03:14;;;;;;;2.45;0.70;;;;;;;4.01;87.39;101686.59;4950980;28;20540;-43
2022/04/03 11:05:42;;;;;;;2.20;0.98;;;;;;;3.86;88.91;101668.00;4951503;28;20210;-43
2022/04/03 11:08:07;;;;;;;2.05;0.77;;;;;;;3.80;90.77;101644.13;4951922;28;20713;-44
2022/04/03 11:10:46;;;;;;;0.70;0.70;;;;;;;4.08;92.08;101639.75;4953509;28;20265;-42
2022/04/03 11:13:13;;;;;;;1.10;0.80;;;;;;;4.49;92.48;101633.59;4955671;29;20179;-43
2022/04/03 11:16:00;;;;;;;1.65;0.80;;;;;;;4.56;92.61;101637.16;4954083;28;20186;-41
2022/04/03 11:18:28;;;;;;;2.92;0.90;;;;;;;4.38;92.26;101628.31;4956172;28;20234;-42
2022/04/03 11:21:23;;;;;;;3.75;0.85;;;;;;;4.40;91.36;101625.66;4955763;29;20253;-42
2022/04/03 11:23:57;;;;;;;2.42;0.80;;;;;;;5.26;91.01;101621.06;4956231;28;20226;-40
2022/04/03 11:26:23;;;;;;;2.55;0.80;;;;;;;5.90;91.35;101614.56;4956173;28;20197;-39
2022/04/03 11:28:49;;;;;;;1.42;0.90;;;;;;;6.08;89.01;101615.34;4954999;28;20669;-42
2022/04/03 11:31:15;;;;;;;4.50;1.20;;;;;;;6.38;85.23;101608.91;4955268;28;20171;-41